Time;durP1;ratioP1;P1;durP2;ratioP2;P2;SDS_P1;SDS_P2;PMS_P1;PMS_P2;Temp;Humidity;BMP_temperature;BMP_pressure;BME280_temperature;BME280_humidity;BME280_pressure;Samples;Min_cycle;Max_cycle;Signal;HPM_P1;HPM_P2
2023/11/05 00:02:17;;;;;;;;;;;;;;;;;;4995158;28;4454;-65
2023/11/05 00:04:42;;;;;;;;;;;;;;;;;;4986501;28;4466;-65
2023/11/05 00:07:07;;;;;;;;;;;;;;;;;;4988162;28;5121;-66
2023/11/05 00:12:35;;;;;;;;;;;;;;;;;;4978298;28;5144;-65
2023/11/05 00:15:22;;;;;;;;;;;;;;;;;;4981621;28;4983;-65
2023/11/05 00:17:48;;;;;;;;;;;;;;;;;;4998247;28;1101;-65
2023/11/05 00:20:29;;;;;;;;;;;;;;;;;;4998916;28;4659;-65
2023/11/05 00:35:37;;;;;;;;;;;;;;;;;;4997549;28;5103;-65
2023/11/05 00:38:03;;;;;;;;;;;;;;;;;;4989563;28;4913;-65
2023/11/05 00:40:29;;;;;;;;;;;;;;;;;;4990020;28;5035;-65
2023/11/05 00:42:54;;;;;;;;;;;;;;;;;;4982023;28;4695;-65
2023/11/05 00:45:20;;;;;;;;;;;;;;;;;;5002277;28;4920;-65
2023/11/05 00:47:45;;;;;;;;;;;;;;;;;;5003287;28;1045;-65
2023/11/05 00:50:10;;;;;;;;;;;;;;;;;;4993872;28;4743;-65
2023/11/05 00:52:35;;;;;;;;;;;;;;;;;;4991138;28;5128;-65
2023/11/05 01:04:14;;;;;;;;;;;;;;;;;;5000874;28;4612;-65
2023/11/05 01:09:42;;;;;;;;;;;;;;;;;;4988934;28;5027;-65
2023/11/05 01:12:08;;;;;;;;;;;;;;;;;;5024163;28;4989;-66
2023/11/05 01:14:33;;;;;;;;;;;;;;;;;;4995928;28;1599;-65
2023/11/05 01:16:59;;;;;;;;;;;;;;;;;;4990075;28;4998;-65
2023/11/05 01:19:25;;;;;;;;;;;;;;;;;;5002924;28;5089;-65
2023/11/05 01:21:56;;;;;;;;;;;;;;;;;;4985956;28;4978;-65
2023/11/05 01:24:22;;;;;;;;;;;;;;;;;;4995694;28;5017;-65
2023/11/05 01:26:47;;;;;;;;;;;;;;;;;;5010114;28;1054;-66
2023/11/05 01:29:12;;;;;;;;;;;;;;;;;;4990144;28;4871;-65
2023/11/05 01:31:37;;;;;;;;;;;;;;;;;;4992762;28;4655;-65
2023/11/05 01:37:06;;;;;;;;;;;;;;;;;;4990154;28;5004;-65
2023/11/05 01:39:31;;;;;;;;;;;;;;;;;;4994285;28;4955;-65
2023/11/05 01:41:56;;;;;;;;;;;;;;;;;;4994454;28;4665;-65
2023/11/05 01:44:21;;;;;;;;;;;;;;;;;;4989690;28;1224;-66
2023/11/05 01:46:47;;;;;;;;;;;;;;;;;;4994179;28;4446;-65
2023/11/05 01:49:12;;;;;;;;;;;;;;;;;;4991708;28;4537;-65
2023/11/05 01:51:37;;;;;;;;;;;;;;;;;;5009410;28;4768;-64
2023/11/05 01:54:03;;;;;;;;;;;;;;;;;;4994525;28;5276;-64
2023/11/05 02:02:41;;;;;;;;;;;;;;;;;;4984416;28;4608;-65
2023/11/05 02:15:52;;;;;;;;;;;;;;;;;;5092300;28;5049;-64
2023/11/05 02:18:17;;;;;;;;;;;;;;;;;;5086688;28;5097;-64
2023/11/05 02:20:43;;;;;;;;;;;;;;;;;;5090603;28;1042;-65
2023/11/05 02:23:14;;;;;;;;;;;;;;;;;;5089194;28;5018;-64
2023/11/05 02:25:50;;;;;;;;;;;;;;;;;;5079090;28;5039;-64
2023/11/05 02:28:16;;;;;;;;;;;;;;;;;;5102206;28;4478;-65
2023/11/05 02:30:41;;;;;;;;;;;;;;;;;;5093158;28;4982;-65
2023/11/05 02:33:06;;;;;;;;;;;;;;;;;;5108017;28;4988;-65
2023/11/05 02:35:53;;;;;;;;;;;;;;;;;;5070921;28;1252;-64
2023/11/05 02:38:19;;;;;;;;;;;;;;;;;;5087740;28;4944;-66
2023/11/05 02:40:44;;;;;;;;;;;;;;;;;;5085932;28;5093;-65
2023/11/05 02:43:10;;;;;;;;;;;;;;;;;;5080610;28;4444;-64
2023/11/05 02:45:35;;;;;;;;;;;;;;;;;;5076803;28;5029;-65
2023/11/05 02:48:01;;;;;;;;;;;;;;;;;;5088454;28;5061;-64
2023/11/05 02:50:26;;;;;;;;;;;;;;;;;;5085960;28;1105;-64
2023/11/05 02:52:51;;;;;;;;;;;;;;;;;;5086623;28;5038;-64
2023/11/05 02:55:16;;;;;;;;;;;;;;;;;;5099013;28;4422;-64
2023/11/05 02:57:42;;;;;;;;;;;;;;;;;;5091034;28;5093;-65
2023/11/05 03:00:16;;;;;;;;;;;;;;;;;;5091421;28;4857;-65
2023/11/05 03:02:41;;;;;;;;;;;;;;;;;;5086781;28;1602;-69
2023/11/05 03:05:07;;;;;;;;;;;;;;;;;;5086129;28;5004;-65
2023/11/05 03:07:32;;;;;;;;;;;;;;;;;;5085058;28;5103;-67
2023/11/05 03:09:58;;;;;;;;;;;;;;;;;;5084229;28;4681;-65
2023/11/05 03:12:24;;;;;;;;;;;;;;;;;;5084258;28;5080;-64
2023/11/05 03:14:50;;;;;;;;;;;;;;;;;;5101689;28;1060;-66
2023/11/05 03:17:15;;;;;;;;;;;;;;;;;;5055418;28;4455;-65
2023/11/05 03:19:41;;;;;;;;;;;;;;;;;;5071520;28;4495;-65
2023/11/05 03:22:06;;;;;;;;;;;;;;;;;;5074335;28;5154;-65
2023/11/05 03:24:32;;;;;;;;;;;;;;;;;;5088276;28;5096;-65
2023/11/05 03:26:57;;;;;;;;;;;;;;;;;;5070775;28;4727;-73
2023/11/05 03:29:22;;;;;;;;;;;;;;;;;;5073318;28;1121;-65
2023/11/05 03:31:49;;;;;;;;;;;;;;;;;;5080283;28;5046;-65
2023/11/05 03:34:14;;;;;;;;;;;;;;;;;;5054508;28;4678;-65
2023/11/05 03:36:40;;;;;;;;;;;;;;;;;;5056828;28;4640;-65
2023/11/05 03:39:05;;;;;;;;;;;;;;;;;;5076290;28;4583;-65
2023/11/05 03:41:30;;;;;;;;;;;;;;;;;;5075545;28;1061;-66
2023/11/05 03:50:08;;;;;;;;;;;;;;;;;;5076503;28;5057;-65
2023/11/05 03:52:42;;;;;;;;;;;;;;;;;;5074733;28;4885;-65
2023/11/05 03:55:07;;;;;;;;;;;;;;;;;;5071983;28;5113;-66
2023/11/05 03:57:33;;;;;;;;;;;;;;;;;;5074351;28;4641;-65
2023/11/05 03:59:58;;;;;;;;;;;;;;;;;;5074662;28;4620;-65
2023/11/05 04:02:52;;;;;;;;;;;;;;;;;;5074451;28;1214;-65
2023/11/05 04:05:18;;;;;;;;;;;;;;;;;;5071077;28;5184;-65
2023/11/05 04:07:43;;;;;;;;;;;;;;;;;;5068663;28;4445;-65
2023/11/05 04:10:10;;;;;;;;;;;;;;;;;;5073977;28;5047;-65
2023/11/05 04:12:35;;;;;;;;;;;;;;;;;;5074761;28;4673;-65
2023/11/05 04:15:04;;;;;;;;;;;;;;;;;;5074886;28;5026;-66
2023/11/05 04:17:30;;;;;;;;;;;;;;;;;;5053931;28;1097;-64
2023/11/05 04:19:55;;;;;;;;;;;;;;;;;;5075854;28;5050;-64
2023/11/05 04:22:20;;;;;;;;;;;;;;;;;;5080629;28;5082;-65
2023/11/05 04:24:46;;;;;;;;;;;;;;;;;;5074051;28;4513;-64
2023/11/05 04:27:11;;;;;;;;;;;;;;;;;;5085837;28;4450;-64
2023/11/05 04:29:37;;;;;;;;;;;;;;;;;;5079806;28;1111;-65
2023/11/05 04:32:02;;;;;;;;;;;;;;;;;;5073082;28;4986;-64
2023/11/05 04:34:32;;;;;;;;;;;;;;;;;;5066065;28;4865;-64
2023/11/05 04:36:57;;;;;;;;;;;;;;;;;;5067674;28;5070;-65
2023/11/05 04:39:22;;;;;;;;;;;;;;;;;;5054031;28;5115;-65
2023/11/05 04:42:14;;;;;;;;;;;;;;;;;;5072270;28;1116;-65
2023/11/05 04:44:40;;;;;;;;;;;;;;;;;;5070085;28;5210;-65
2023/11/05 04:47:05;;;;;;;;;;;;;;;;;;5070557;28;5120;-65
2023/11/05 04:49:30;;;;;;;;;;;;;;;;;;5095984;28;4998;-65
2023/11/05 04:51:56;;;;;;;;;;;;;;;;;;5069890;28;5005;-70
2023/11/05 04:54:21;;;;;;;;;;;;;;;;;;5071608;28;5077;-66
2023/11/05 04:56:47;;;;;;;;;;;;;;;;;;5071991;28;1029;-68
2023/11/05 04:59:13;;;;;;;;;;;;;;;;;;5079824;28;4605;-65
2023/11/05 05:01:38;;;;;;;;;;;;;;;;;;5068859;28;5088;-64
2023/11/05 05:04:03;;;;;;;;;;;;;;;;;;5067025;28;5616;-65
2023/11/05 05:06:29;;;;;;;;;;;;;;;;;;5049451;28;4480;-65
2023/11/05 05:09:09;;;;;;;;;;;;;;;;;;5071328;28;1318;-64
2023/11/05 05:11:34;;;;;;;;;;;;;;;;;;5080158;28;5332;-64
2023/11/05 05:13:59;;;;;;;;;;;;;;;;;;5069843;28;4893;-65
2023/11/05 05:19:19;;;;;;;;;;;;;;;;;;5073265;28;5072;-65
2023/11/05 05:21:44;;;;;;;;;;;;;;;;;;5070494;28;4445;-65
2023/11/05 05:24:10;;;;;;;;;;;;;;;;;;5071054;28;5494;-70
2023/11/05 05:26:35;;;;;;;;;;;;;;;;;;5052935;28;1126;-65
2023/11/05 05:29:13;;;;;;;;;;;;;;;;;;5073118;28;4727;-64
2023/11/05 05:31:51;;;;;;;;;;;;;;;;;;5076664;28;4684;-65
2023/11/05 05:34:16;;;;;;;;;;;;;;;;;;5090801;28;5103;-65
2023/11/05 05:36:57;;;;;;;;;;;;;;;;;;5091049;28;4633;-65
2023/11/05 05:39:22;;;;;;;;;;;;;;;;;;5070055;28;4985;-65
2023/11/05 05:41:48;;;;;;;;;;;;;;;;;;5074419;28;1552;-65
2023/11/05 05:47:16;;;;;;;;;;;;;;;;;;5073126;28;5120;-65
2023/11/05 05:49:41;;;;;;;;;;;;;;;;;;5073512;28;5059;-65
2023/11/05 05:52:06;;;;;;;;;;;;;;;;;;5074094;28;4668;-65
2023/11/05 05:54:32;;;;;;;;;;;;;;;;;;5074300;28;4820;-65
2023/11/05 06:00:00;;;;;;;;;;;;;;;;;;5074069;28;4953;-65
2023/11/05 06:05:29;;;;;;;;;;;;;;;;;;5072734;28;4622;-65
2023/11/05 06:10:57;;;;;;;;;;;;;;;;;;5074536;28;5824;-65
2023/11/05 06:16:25;;;;;;;;;;;;;;;;;;5073907;28;5069;-64
2023/11/05 06:18:50;;;;;;;;;;;;;;;;;;5073347;28;4830;-64
2023/11/05 06:21:17;;;;;;;;;;;;;;;;;;5073437;28;4498;-65
2023/11/05 06:23:42;;;;;;;;;;;;;;;;;;5073728;28;1963;-65
2023/11/05 06:29:10;;;;;;;;;;;;;;;;;;5074860;28;4794;-66
2023/11/05 06:31:35;;;;;;;;;;;;;;;;;;5073340;28;5031;-66
2023/11/05 06:34:01;;;;;;;;;;;;;;;;;;5072253;28;4997;-67
2023/11/05 06:36:26;;;;;;;;;;;;;;;;;;5082574;28;5028;-64
2023/11/05 06:38:51;;;;;;;;;;;;;;;;;;5071233;28;3244;-71
2023/11/05 06:41:16;;;;;;;;;;;;;;;;;;5069049;28;4631;-69
2023/11/05 06:43:42;;;;;;;;;;;;;;;;;;5066905;28;5084;-63
2023/11/05 06:46:07;;;;;;;;;;;;;;;;;;5088967;28;4921;-68
2023/11/05 06:48:32;;;;;;;;;;;;;;;;;;5068613;28;5119;-66
2023/11/05 06:51:10;;;;;;;;;;;;;;;;;;5078024;28;5163;-68
2023/11/05 06:53:35;;;;;;;;;;;;;;;;;;5070011;28;2685;-64
2023/11/05 06:56:01;;;;;;;;;;;;;;;;;;5076427;28;4491;-66
2023/11/05 06:58:56;;;;;;;;;;;;;;;;;;5070860;28;4453;-65
2023/11/05 07:01:49;;;;;;;;;;;;;;;;;;5074623;28;4462;-63
2023/11/05 07:04:14;;;;;;;;;;;;;;;;;;5079220;28;5109;-64
2023/11/05 07:06:40;;;;;;;;;;;;;;;;;;5097442;28;4657;-65
2023/11/05 07:09:07;;;;;;;;;;;;;;;;;;5095433;28;4550;-64
2023/11/05 07:14:34;;;;;;;;;;;;;;;;;;5097650;28;4553;-64
2023/11/05 07:20:17;;;;;;;;;;;;;;;;;;5090623;28;5236;-65
2023/11/05 07:22:55;;;;;;;;;;;;;;;;;;5083864;28;4506;-64
2023/11/05 07:25:20;;;;;;;;;;;;;;;;;;5071262;28;4538;-65
2023/11/05 07:27:46;;;;;;;;;;;;;;;;;;5071276;28;5084;-65
2023/11/05 07:30:12;;;;;;;;;;;;;;;;;;5071511;28;4902;-66
2023/11/05 07:36:12;;;;;;;;;;;;;;;;;;5074866;28;4715;-66
2023/11/05 07:38:38;;;;;;;;;;;;;;;;;;5071778;28;5100;-65
2023/11/05 07:41:05;;;;;;;;;;;;;;;;;;5060216;28;5105;-66
2023/11/05 07:43:30;;;;;;;;;;;;;;;;;;5053294;28;4527;-66
2023/11/05 07:45:56;;;;;;;;;;;;;;;;;;5082243;28;5075;-65
2023/11/05 07:57:46;;;;;;;;;;;;;;;;;;5088878;28;5350;-65
2023/11/05 08:00:24;;;;;;;;;;;;;;;;;;5086474;28;4713;-66
2023/11/05 08:02:49;;;;;;;;;;;;;;;;;;5058326;28;2100;-65
2023/11/05 08:05:15;;;;;;;;;;;;;;;;;;5086928;28;5029;-65
2023/11/05 08:07:56;;;;;;;;;;;;;;;;;;5103494;28;4461;-65
2023/11/05 08:10:21;;;;;;;;;;;;;;;;;;5055693;28;4838;-65
2023/11/05 08:12:47;;;;;;;;;;;;;;;;;;5075620;28;4620;-65
2023/11/05 08:15:13;;;;;;;;;;;;;;;;;;5089991;28;5026;-65
2023/11/05 08:17:38;;;;;;;;;;;;;;;;;;5090082;28;1212;-65
2023/11/05 08:20:04;;;;;;;;;;;;;;;;;;5104188;28;4445;-65
2023/11/05 08:22:30;;;;;;;;;;;;;;;;;;5071478;28;5008;-65
2023/11/05 08:24:55;;;;;;;;;;;;;;;;;;5070583;28;4928;-65
2023/11/05 08:27:20;;;;;;;;;;;;;;;;;;5093489;28;4834;-65
2023/11/05 08:29:46;;;;;;;;;;;;;;;;;;5072094;28;1068;-66
2023/11/05 08:32:13;;;;;;;;;;;;;;;;;;5072225;28;4821;-67
2023/11/05 08:35:11;;;;;;;;;;;;;;;;;;5090182;28;5054;-65
2023/11/05 08:40:51;;;;;;;;;;;;;;;;;;5094621;28;5427;-65
2023/11/05 08:46:20;;;;;;;;;;;;;;;;;;5072091;28;5245;-65
2023/11/05 08:48:45;;;;;;;;;;;;;;;;;;5094086;28;5046;-65
2023/11/05 08:51:11;;;;;;;;;;;;;;;;;;5113450;28;4597;-65
2023/11/05 08:53:36;;;;;;;;;;;;;;;;;;5097531;28;1389;-65
2023/11/05 08:56:01;;;;;;;;;;;;;;;;;;5096797;28;4858;-65
2023/11/05 08:58:27;;;;;;;;;;;;;;;;;;5081491;28;4847;-65
2023/11/05 09:00:56;;;;;;;;;;;;;;;;;;5054337;28;5213;-65
2023/11/05 09:03:22;;;;;;;;;;;;;;;;;;5071417;28;4671;-66
2023/11/05 09:05:47;;;;;;;;;;;;;;;;;;5075126;28;1182;-65
2023/11/05 09:08:14;;;;;;;;;;;;;;;;;;5099229;28;5134;-65
2023/11/05 09:10:39;;;;;;;;;;;;;;;;;;5052401;28;5024;-66
2023/11/05 09:13:10;;;;;;;;;;;;;;;;;;5070375;28;5724;-65
2023/11/05 09:15:36;;;;;;;;;;;;;;;;;;5072938;28;5184;-65
2023/11/05 09:18:01;;;;;;;;;;;;;;;;;;5068893;28;5076;-66
2023/11/05 09:20:27;;;;;;;;;;;;;;;;;;5066287;28;1498;-65
2023/11/05 09:22:59;;;;;;;;;;;;;;;;;;5072970;28;4700;-65
2023/11/05 09:25:27;;;;;;;;;;;;;;;;;;5054907;28;4999;-65
2023/11/05 09:27:52;;;;;;;;;;;;;;;;;;5050787;28;5363;-66
2023/11/05 09:30:18;;;;;;;;;;;;;;;;;;5087161;28;5138;-66
2023/11/05 09:32:43;;;;;;;;;;;;;;;;;;5077979;28;1138;-66
2023/11/05 09:35:12;;;;;;;;;;;;;;;;;;5078210;28;4644;-66
2023/11/05 09:37:57;;;;;;;;;;;;;;;;;;5071086;28;4938;-66
2023/11/05 09:40:22;;;;;;;;;;;;;;;;;;5070833;28;4668;-66
2023/11/05 09:43:00;;;;;;;;;;;;;;;;;;5071132;28;4976;-66
2023/11/05 09:45:28;;;;;;;;;;;;;;;;;;5076375;28;4497;-65
2023/11/05 09:47:54;;;;;;;;;;;;;;;;;;5093343;28;1377;-66
2023/11/05 09:53:26;;;;;;;;;;;;;;;;;;5094884;28;4755;-64
2023/11/05 09:55:52;;;;;;;;;;;;;;;;;;5075856;28;5138;-62
2023/11/05 09:58:18;;;;;;;;;;;;;;;;;;5094541;28;4561;-63
2023/11/05 10:00:43;;;;;;;;;;;;;;;;;;5093960;28;4597;-63
2023/11/05 10:03:41;;;;;;;;;;;;;;;;;;5092512;28;4855;-64
2023/11/05 10:09:10;;;;;;;;;;;;;;;;;;5093919;28;4932;-64
2023/11/05 10:14:39;;;;;;;;;;;;;;;;;;5094384;28;4928;-63
2023/11/05 10:17:17;;;;;;;;;;;;;;;;;;5076423;28;4994;-65
2023/11/05 10:19:42;;;;;;;;;;;;;;;;;;5070799;28;4643;-64
2023/11/05 10:22:14;;;;;;;;;;;;;;;;;;5068923;28;5059;-64
2023/11/05 10:24:40;;;;;;;;;;;;;;;;;;5072180;28;5161;-64
2023/11/05 10:33:10;;;;;;;;;;;;;;;;;;5075927;28;5383;-60
2023/11/05 10:35:37;;;;;;;;;;;;;;;;;;5076650;28;1187;-65
2023/11/05 10:38:03;;;;;;;;;;;;;;;;;;5075453;28;4976;-64
2023/11/05 10:40:28;;;;;;;;;;;;;;;;;;5071635;28;5057;-64
2023/11/05 10:43:02;;;;;;;;;;;;;;;;;;5060597;28;5051;-65
2023/11/05 10:45:27;;;;;;;;;;;;;;;;;;5076147;28;5240;-65
2023/11/05 10:47:52;;;;;;;;;;;;;;;;;;5098140;28;1340;-64
2023/11/05 10:50:23;;;;;;;;;;;;;;;;;;5092158;28;5087;-64
2023/11/05 10:52:49;;;;;;;;;;;;;;;;;;5078298;28;4494;-64
2023/11/05 10:55:15;;;;;;;;;;;;;;;;;;5055684;28;5047;-65
2023/11/05 10:57:41;;;;;;;;;;;;;;;;;;5081774;28;4469;-64
2023/11/05 11:00:10;;;;;;;;;;;;;;;;;;5080837;28;4845;-64
2023/11/05 11:02:38;;;;;;;;;;;;;;;;;;5077671;28;1100;-65
2023/11/05 11:05:13;;;;;;;;;;;;;;;;;;5085363;28;4948;-64
2023/11/05 11:07:52;;;;;;;;;;;;;;;;;;5096972;28;4822;-65
2023/11/05 11:10:19;;;;;;;;;;;;;;;;;;5108074;28;4964;-65
2023/11/05 11:12:44;;;;;;;;;;;;;;;;;;5099220;28;4466;-65
2023/11/05 11:18:18;;;;;;;;;;;;;;;;;;5075642;28;4449;-65
2023/11/05 11:20:44;;;;;;;;;;;;;;;;;;5078145;28;1185;-65
2023/11/05 11:23:14;;;;;;;;;;;;;;;;;;5053500;28;5001;-63
2023/11/05 11:26:01;;;;;;;;;;;;;;;;;;5072659;28;5098;-64
2023/11/05 11:37:44;;;;;;;;;;;;;;;;;;5076516;28;5251;-64
2023/11/05 11:40:13;;;;;;;;;;;;;;;;;;5077028;28;5107;-63
2023/11/05 11:42:39;;;;;;;;;;;;;;;;;;5056669;28;5172;-64
2023/11/05 11:45:05;;;;;;;;;;;;;;;;;;5052655;28;5048;-65
2023/11/05 11:47:32;;;;;;;;;;;;;;;;;;5054081;28;1089;-66
2023/11/05 11:50:08;;;;;;;;;;;;;;;;;;5075002;28;5199;-64
2023/11/05 11:52:45;;;;;;;;;;;;;;;;;;5087275;28;4413;-65
2023/11/05 11:55:10;;;;;;;;;;;;;;;;;;5081394;28;5140;-65
2023/11/05 11:57:36;;;;;;;;;;;;;;;;;;5080562;28;4455;-65
2023/11/05 12:00:01;;;;;;;;;;;;;;;;;;5087100;28;4960;-63
2023/11/05 12:02:27;;;;;;;;;;;;;;;;;;5096240;28;1189;-64
2023/11/05 12:04:52;;;;;;;;;;;;;;;;;;5073212;28;4992;-65
2023/11/05 12:07:18;;;;;;;;;;;;;;;;;;5074914;28;5007;-66
2023/11/05 12:09:44;;;;;;;;;;;;;;;;;;5073820;28;4494;-63
2023/11/05 12:12:09;;;;;;;;;;;;;;;;;;5056864;28;4983;-65
2023/11/05 12:14:35;;;;;;;;;;;;;;;;;;5089306;28;1078;-65
2023/11/05 12:17:00;;;;;;;;;;;;;;;;;;5072040;28;4438;-65
2023/11/05 12:19:39;;;;;;;;;;;;;;;;;;5077400;28;5072;-64
2023/11/05 12:22:04;;;;;;;;;;;;;;;;;;5074130;28;4430;-64
2023/11/05 12:24:30;;;;;;;;;;;;;;;;;;5053353;28;4546;-65
2023/11/05 12:26:55;;;;;;;;;;;;;;;;;;5098402;28;5077;-62
2023/11/05 12:29:20;;;;;;;;;;;;;;;;;;5075571;28;1143;-65
2023/11/05 12:31:46;;;;;;;;;;;;;;;;;;5057751;28;4475;-64
2023/11/05 12:37:23;;;;;;;;;;;;;;;;;;5074089;28;4995;-64
2023/11/05 12:52:32;;;;;;;;;;;;;;;;;;5072847;28;4708;-64
2023/11/05 12:54:59;;;;;;;;;;;;;;;;;;5074448;28;4938;-64
2023/11/05 12:57:24;;;;;;;;;;;;;;;;;;5064211;28;5094;-63
2023/11/05 12:59:49;;;;;;;;;;;;;;;;;;5074681;28;949;-64
2023/11/05 13:02:14;;;;;;;;;;;;;;;;;;5077198;28;4929;-63
2023/11/05 13:04:40;;;;;;;;;;;;;;;;;;5078090;28;4630;-63
2023/11/05 13:07:06;;;;;;;;;;;;;;;;;;5073344;28;4458;-64
2023/11/05 13:09:32;;;;;;;;;;;;;;;;;;5074451;28;4991;-64
2023/11/05 13:11:58;;;;;;;;;;;;;;;;;;5083627;28;4537;-65
2023/11/05 13:14:23;;;;;;;;;;;;;;;;;;5060626;28;1317;-65
2023/11/05 13:16:48;;;;;;;;;;;;;;;;;;5058233;28;5173;-65
2023/11/05 13:28:58;;;;;;;;;;;;;;;;;;5072693;28;4451;-65
2023/11/05 13:31:31;;;;;;;;;;;;;;;;;;5073254;28;4960;-64
2023/11/05 13:33:58;;;;;;;;;;;;;;;;;;5091673;28;4676;-65
2023/11/05 13:36:24;;;;;;;;;;;;;;;;;;5078787;28;4977;-64
2023/11/05 13:38:49;;;;;;;;;;;;;;;;;;5076027;28;990;-63
2023/11/05 13:41:15;;;;;;;;;;;;;;;;;;5085318;28;5006;-64
2023/11/05 13:43:40;;;;;;;;;;;;;;;;;;5054044;28;4455;-65
2023/11/05 13:46:06;;;;;;;;;;;;;;;;;;5089348;28;4732;-64
2023/11/05 13:48:56;;;;;;;;;;;;;;;;;;5093103;28;4581;-65
2023/11/05 13:51:22;;;;;;;;;;;;;;;;;;5066854;28;4596;-64
2023/11/05 13:53:52;;;;;;;;;;;;;;;;;;5060627;28;1248;-64
2023/11/05 14:02:44;;;;;;;;;;;;;;;;;;5071468;28;4757;-64
2023/11/05 14:08:39;;;;;;;;;;;;;;;;;;5034247;28;4793;-64
2023/11/05 14:11:07;;;;;;;;;;;;;;;;;;5035553;28;4789;-63
2023/11/05 14:14:07;;;;;;;;;;;;;;;;;;5074363;28;5056;-64
2023/11/05 14:25:41;;;;;;;;;;;;;;;;;;5033846;28;5080;-64
2023/11/05 14:28:07;;;;;;;;;;;;;;;;;;5029867;28;4501;-64
2023/11/05 14:30:33;;;;;;;;;;;;;;;;;;5029120;28;5131;-64
2023/11/05 14:32:58;;;;;;;;;;;;;;;;;;5033497;28;5015;-64
2023/11/05 14:41:31;;;;;;;;;;;;;;;;;;5034247;28;4575;-65
2023/11/05 14:43:56;;;;;;;;;;;;;;;;;;5033281;28;4437;-64
2023/11/05 14:46:22;;;;;;;;;;;;;;;;;;5033596;28;4463;-64
2023/11/05 14:48:47;;;;;;;;;;;;;;;;;;5030410;28;4569;-64
2023/11/05 14:54:15;;;;;;;;;;;;;;;;;;5069794;28;5123;-64
2023/11/05 14:56:41;;;;;;;;;;;;;;;;;;5073694;28;1070;-64
2023/11/05 14:59:07;;;;;;;;;;;;;;;;;;5073429;28;4429;-65
2023/11/05 15:01:32;;;;;;;;;;;;;;;;;;5073305;28;4571;-65
2023/11/05 15:03:58;;;;;;;;;;;;;;;;;;5041979;28;5189;-65
2023/11/05 15:06:23;;;;;;;;;;;;;;;;;;5053459;28;4506;-65
2023/11/05 15:11:52;;;;;;;;;;;;;;;;;;5073661;28;6250;-64
2023/11/05 15:20:53;;;;;;;;;;;;;;;;;;5074126;28;4593;-64
2023/11/05 15:23:20;;;;;;;;;;;;;;;;;;5070833;28;5113;-63
2023/11/05 15:25:45;;;;;;;;;;;;;;;;;;5062123;28;4699;-63
2023/11/05 15:28:13;;;;;;;;;;;;;;;;;;5071411;28;5163;-63
2023/11/05 15:46:07;;;;;;;;;;;;;;;;;;5082898;28;4989;-64
2023/11/05 15:48:32;;;;;;;;;;;;;;;;;;5079027;28;5067;-64
2023/11/05 15:50:57;;;;;;;;;;;;;;;;;;5057978;28;4797;-64
2023/11/05 15:53:23;;;;;;;;;;;;;;;;;;5109380;28;956;-64
2023/11/05 15:58:56;;;;;;;;;;;;;;;;;;5105318;28;4565;-64
2023/11/05 16:01:21;;;;;;;;;;;;;;;;;;5090744;28;4528;-64
2023/11/05 16:03:48;;;;;;;;;;;;;;;;;;5079005;28;5297;-64
2023/11/05 16:06:13;;;;;;;;;;;;;;;;;;5086618;28;4853;-63
2023/11/05 16:14:52;;;;;;;;;;;;;;;;;;5094302;28;4597;-64
2023/11/05 16:17:18;;;;;;;;;;;;;;;;;;5073525;28;5917;-66
2023/11/05 16:19:43;;;;;;;;;;;;;;;;;;5074884;28;4508;-65
2023/11/05 16:22:09;;;;;;;;;;;;;;;;;;5074009;28;5106;-65
2023/11/05 16:24:34;;;;;;;;;;;;;;;;;;5072562;28;4707;-65
2023/11/05 16:27:36;;;;;;;;;;;;;;;;;;5060169;28;5099;-65
2023/11/05 16:30:05;;;;;;;;;;;;;;;;;;5071877;28;4567;-63
2023/11/05 16:32:30;;;;;;;;;;;;;;;;;;5074696;28;3194;-64
2023/11/05 16:34:56;;;;;;;;;;;;;;;;;;5055719;28;5018;-65
2023/11/05 16:43:26;;;;;;;;;;;;;;;;;;5075239;28;5031;-65
2023/11/05 16:45:51;;;;;;;;;;;;;;;;;;5074536;28;4638;-64
2023/11/05 16:48:17;;;;;;;;;;;;;;;;;;5069562;28;4507;-64
2023/11/05 16:50:42;;;;;;;;;;;;;;;;;;5069417;28;1004;-65
2023/11/05 16:53:15;;;;;;;;;;;;;;;;;;5071652;28;4836;-65
2023/11/05 16:55:50;;;;;;;;;;;;;;;;;;5072654;28;4524;-65
2023/11/05 16:58:15;;;;;;;;;;;;;;;;;;5073065;28;5154;-64
2023/11/05 17:00:42;;;;;;;;;;;;;;;;;;5084419;28;4713;-65
2023/11/05 17:03:08;;;;;;;;;;;;;;;;;;5080568;28;5017;-63
2023/11/05 17:05:35;;;;;;;;;;;;;;;;;;5071892;28;1973;-63
2023/11/05 17:08:01;;;;;;;;;;;;;;;;;;5051596;28;4395;-64
2023/11/05 17:10:26;;;;;;;;;;;;;;;;;;5054207;28;5017;-63
2023/11/05 17:12:52;;;;;;;;;;;;;;;;;;5054313;28;4434;-63
2023/11/05 17:15:17;;;;;;;;;;;;;;;;;;5053868;28;5136;-64
2023/11/05 17:17:43;;;;;;;;;;;;;;;;;;5063350;28;1168;-64
2023/11/05 17:20:08;;;;;;;;;;;;;;;;;;5063058;28;4596;-64
2023/11/05 17:22:34;;;;;;;;;;;;;;;;;;5051251;28;5082;-65
2023/11/05 17:25:08;;;;;;;;;;;;;;;;;;5051227;28;4853;-64
2023/11/05 17:28:07;;;;;;;;;;;;;;;;;;5054157;28;5099;-64
2023/11/05 17:42:48;;;;;;;;;;;;;;;;;;5062463;28;5193;-64
2023/11/05 17:45:14;;;;;;;;;;;;;;;;;;5051780;28;4506;-64
2023/11/05 17:47:41;;;;;;;;;;;;;;;;;;5050035;28;1202;-64
2023/11/05 17:50:07;;;;;;;;;;;;;;;;;;5058438;28;4848;-64
2023/11/05 17:56:06;;;;;;;;;;;;;;;;;;5074431;28;5025;-64
2023/11/05 17:58:34;;;;;;;;;;;;;;;;;;5052412;28;5135;-64
2023/11/05 18:01:00;;;;;;;;;;;;;;;;;;5056751;28;5021;-63
2023/11/05 18:03:25;;;;;;;;;;;;;;;;;;5052872;28;5263;-63
2023/11/05 18:05:50;;;;;;;;;;;;;;;;;;5051227;28;1100;-63
2023/11/05 18:17:31;;;;;;;;;;;;;;;;;;5076795;28;4603;-63
2023/11/05 18:23:00;;;;;;;;;;;;;;;;;;5067588;28;4518;-64
2023/11/05 18:25:25;;;;;;;;;;;;;;;;;;5070953;28;4827;-63
2023/11/05 18:27:52;;;;;;;;;;;;;;;;;;5085745;28;4494;-64
2023/11/05 18:30:17;;;;;;;;;;;;;;;;;;5091149;28;4479;-64
2023/11/05 18:32:43;;;;;;;;;;;;;;;;;;5082153;28;1162;-63
2023/11/05 18:35:09;;;;;;;;;;;;;;;;;;5071542;28;5032;-63
2023/11/05 18:37:35;;;;;;;;;;;;;;;;;;5069807;28;5088;-63
2023/11/05 18:46:30;;;;;;;;;;;;;;;;;;5070126;28;5216;-63
2023/11/05 18:58:38;;;;;;;;;;;;;;;;;;5074894;28;5161;-64
2023/11/05 19:04:09;;;;;;;;;;;;;;;;;;5072058;28;5146;-60
2023/11/05 19:06:51;;;;;;;;;;;;;;;;;;5070541;28;5342;-64
2023/11/05 19:09:22;;;;;;;;;;;;;;;;;;5070417;28;5032;-63
2023/11/05 19:11:48;;;;;;;;;;;;;;;;;;5071525;28;1214;-64
2023/11/05 19:14:13;;;;;;;;;;;;;;;;;;5077287;28;4945;-64
2023/11/05 19:22:44;;;;;;;;;;;;;;;;;;5071682;28;4655;-65
2023/11/05 19:25:10;;;;;;;;;;;;;;;;;;5071939;28;4519;-64
2023/11/05 19:27:35;;;;;;;;;;;;;;;;;;5057478;28;5075;-65
2023/11/05 19:33:04;;;;;;;;;;;;;;;;;;5073754;28;4461;-59
2023/11/05 19:35:29;;;;;;;;;;;;;;;;;;5068699;28;1586;-64
2023/11/05 19:37:55;;;;;;;;;;;;;;;;;;5055331;28;4887;-65
2023/11/05 19:40:20;;;;;;;;;;;;;;;;;;5072309;28;4454;-65
2023/11/05 19:42:48;;;;;;;;;;;;;;;;;;5078940;28;4497;-65
2023/11/05 19:45:14;;;;;;;;;;;;;;;;;;5077041;28;6095;-65
2023/11/05 19:47:39;;;;;;;;;;;;;;;;;;5072336;28;1045;-64
2023/11/05 19:50:08;;;;;;;;;;;;;;;;;;5072329;28;4377;-65
2023/11/05 19:52:42;;;;;;;;;;;;;;;;;;5068923;28;5056;-65
2023/11/05 19:55:12;;;;;;;;;;;;;;;;;;5055313;28;5120;-65
2023/11/05 19:57:38;;;;;;;;;;;;;;;;;;5058135;28;5020;-65
2023/11/05 20:00:04;;;;;;;;;;;;;;;;;;5058030;28;4525;-65
2023/11/05 20:02:29;;;;;;;;;;;;;;;;;;5075173;28;1365;-63
2023/11/05 20:04:54;;;;;;;;;;;;;;;;;;5064870;28;5097;-64
2023/11/05 20:10:48;;;;;;;;;;;;;;;;;;5068746;28;5044;-64
2023/11/05 20:13:14;;;;;;;;;;;;;;;;;;5070422;28;5015;-64
2023/11/05 20:15:39;;;;;;;;;;;;;;;;;;5072480;28;4485;-64
2023/11/05 20:21:00;;;;;;;;;;;;;;;;;;5076139;28;4866;-63
2023/11/05 20:23:38;;;;;;;;;;;;;;;;;;5069546;28;1053;-63
2023/11/05 20:26:03;;;;;;;;;;;;;;;;;;5074731;28;4599;-63
2023/11/05 20:32:07;;;;;;;;;;;;;;;;;;5072520;28;5009;-64
2023/11/05 20:34:35;;;;;;;;;;;;;;;;;;5073021;28;4984;-64
2023/11/05 20:40:04;;;;;;;;;;;;;;;;;;5075434;28;5102;-65
2023/11/05 20:42:29;;;;;;;;;;;;;;;;;;5071090;28;4654;-64
2023/11/05 20:44:55;;;;;;;;;;;;;;;;;;5083136;28;1981;-64
2023/11/05 20:47:20;;;;;;;;;;;;;;;;;;5073471;28;5052;-62
2023/11/05 20:49:48;;;;;;;;;;;;;;;;;;5071913;28;5031;-64
2023/11/05 20:52:13;;;;;;;;;;;;;;;;;;5073667;28;5091;-64
2023/11/05 20:54:38;;;;;;;;;;;;;;;;;;5077269;28;4974;-64
2023/11/05 21:00:25;;;;;;;;;;;;;;;;;;5070683;28;5260;-64
2023/11/05 21:02:51;;;;;;;;;;;;;;;;;;5087635;28;1132;-64
2023/11/05 21:05:16;;;;;;;;;;;;;;;;;;5078356;28;5080;-65
2023/11/05 21:07:41;;;;;;;;;;;;;;;;;;5072050;28;4954;-65
2023/11/05 21:10:07;;;;;;;;;;;;;;;;;;5072602;28;4650;-64
2023/11/05 21:12:33;;;;;;;;;;;;;;;;;;5056946;28;4644;-64
2023/11/05 21:14:58;;;;;;;;;;;;;;;;;;5056348;28;5050;-64
2023/11/05 21:20:26;;;;;;;;;;;;;;;;;;5075752;28;5624;-64
2023/11/05 21:22:51;;;;;;;;;;;;;;;;;;5078993;28;5056;-72
2023/11/05 21:25:17;;;;;;;;;;;;;;;;;;5090300;28;5096;-72
2023/11/05 21:27:42;;;;;;;;;;;;;;;;;;5074436;28;4518;-72
2023/11/05 21:30:09;;;;;;;;;;;;;;;;;;5075484;28;4684;-72
2023/11/05 21:32:35;;;;;;;;;;;;;;;;;;5095307;28;1285;-73
2023/11/05 21:35:00;;;;;;;;;;;;;;;;;;5074501;28;4687;-73
2023/11/05 21:37:26;;;;;;;;;;;;;;;;;;5073004;28;4778;-69
2023/11/05 21:42:55;;;;;;;;;;;;;;;;;;5074403;28;5036;-69
2023/11/05 21:45:21;;;;;;;;;;;;;;;;;;5066040;28;4732;-64
2023/11/05 21:47:46;;;;;;;;;;;;;;;;;;5060846;28;3132;-58
2023/11/05 21:50:11;;;;;;;;;;;;;;;;;;5086534;28;5046;-60
2023/11/05 21:52:37;;;;;;;;;;;;;;;;;;5073942;28;5022;-61
2023/11/05 21:55:02;;;;;;;;;;;;;;;;;;5074241;28;4992;-61
2023/11/05 21:57:27;;;;;;;;;;;;;;;;;;5073829;28;5128;-62
2023/11/05 21:59:54;;;;;;;;;;;;;;;;;;5074751;28;970;-62
2023/11/05 22:05:22;;;;;;;;;;;;;;;;;;5074909;28;4564;-61
2023/11/05 22:07:47;;;;;;;;;;;;;;;;;;5074069;28;5079;-60
2023/11/05 22:10:14;;;;;;;;;;;;;;;;;;5072934;28;4973;-60